Latest Weather Observations for Territory Grape Farm

IDD60801

Issued at 5:31 pm CST Thursday 23 March 2017 (issued every 30 minutes, with the page automatically refreshed every 10 minutes)

About weather observations | Map of weather stations | Latest weather observations for NT | Other Formats
Station Details ID: 015643 Name: TERRITORY GRAPE FARM Lat: -22.45 Lon: 133.64 Height: 565.6 m
Data from the previous 72 hours. | See also: Recent months at Territory Grape Farm
Date/Time
CST
Temp
°C
App
Temp
°C
Dew
Point
°C
Rel
Hum
%
Delta-T
°C
Wind Press
QNH
hPa
Press
MSL
hPa
Rain since
9am
mm
Dir  Spd
km/h
Gust
km/h
Spd
kts
Gust
kts
23/05:30pm 37.9 35.2 3.6 12 18.7 ESE 7 19 4 10 1010.7 1006.7 -
23/05:00pm 38.2 35.1 3.8 12 18.8 SE 9 15 5 8 1010.7 1006.7 -
23/04:30pm 38.5 35.1 4.1 12 19.0 ESE 11 22 6 12 1010.7 1006.7 -
23/04:00pm 38.9 36.7 5.5 13 18.8 NNW 6 7 3 4 1010.7 1006.7 -
23/03:30pm 38.7 36.5 5.4 13 18.7 SW 6 15 3 8 1011.1 1007.2 -
23/03:00pm 38.1 35.8 4.9 13 18.5 E 6 9 3 5 1011.4 1007.5 -
23/02:30pm 37.9 34.5 5.8 14 18.1 ESE 13 20 7 11 1011.7 1007.8 -
23/02:00pm 37.5 35.3 5.5 14 17.9 SSE 6 11 3 6 1012.1 1008.2 -
23/01:30pm 37.7 34.6 5.6 14 18.0 ENE 11 24 6 13 1012.7 1008.8 -
23/01:00pm 37.4 34.3 5.4 14 17.9 E 11 19 6 10 1012.9 1009.0 -
23/12:30pm 37.1 33.4 6.2 15 17.4 E 15 22 8 12 1013.4 1009.5 -
23/12:00pm 36.7 33.1 6.8 16 17.0 E 15 26 8 14 1013.9 1010.0 -
23/11:30am 36.6 33.2 7.6 17 16.7 E 15 28 8 15 1014.4 1010.5 -
23/11:00am 35.9 32.2 7.9 18 16.1 E 17 28 9 15 1014.8 1010.9 -
23/10:30am 34.9 31.9 9.3 21 15.0 E 15 22 8 12 1015.2 1011.3 -
23/10:00am 33.6 31.4 10.9 25 13.5 E 13 19 7 10 1015.3 1011.4 -
23/09:30am 31.9 28.9 10.6 27 12.6 E 17 24 9 13 1015.4 1011.5 -
23/09:00am 29.9 26.5 10.5 30 11.3 E 19 24 10 13 1015.4 1011.5 -
23/08:30am 28.6 25.2 9.3 30 11.0 ESE 17 24 9 13 1015.2 1011.3 -
23/08:00am 26.6 24.9 9.9 35 9.5 ESE 9 15 5 8 1015.0 1011.1 -
23/07:30am 23.6 21.9 9.9 42 7.7 SE 9 11 5 6 1014.8 1010.9 -
23/07:00am 21.7 19.6 9.9 47 6.6 SE 11 13 6 7 1014.6 1010.7 -
23/06:30am 20.1 18.4 9.7 51 5.7 SE 9 11 5 6 1014.4 1010.5 -
23/06:00am 20.3 18.5 9.5 50 5.9 ESE 9 11 5 6 1014.1 1010.2 -
23/05:30am 20.1 17.8 9.1 49 6.0 E 11 13 6 7 1013.8 1009.9 -
23/05:00am 20.6 18.3 8.9 47 6.3 E 11 13 6 7 1013.8 1009.9 -
23/04:30am 22.2 20.2 8.7 42 7.4 SE 9 9 5 5 1013.5 1009.6 -
23/04:00am 24.0 21.5 8.0 36 8.7 SE 11 15 6 8 1013.3 1009.4 -
23/03:30am 24.2 21.4 8.6 37 8.6 SSE 13 17 7 9 1013.3 1009.4 -
23/03:00am 23.4 21.3 8.3 38 8.2 S 9 13 5 7 1013.4 1009.5 -
23/02:30am 24.2 22.2 8.6 37 8.6 SSE 9 13 5 7 1013.4 1009.5 -
23/02:00am 21.9 20.4 9.1 44 7.0 SSW 7 9 4 5 1013.7 1009.8 -
23/01:30am 21.8 19.9 9.0 44 7.0 ESE 9 11 5 6 1013.6 1009.7 -
23/01:00am 22.1 19.9 9.3 44 7.1 E 11 13 6 7 1013.6 1009.7 -
23/12:30am 21.6 19.5 9.8 47 6.5 ESE 11 13 6 7 1013.6 1009.7 -
23/12:00am 22.5 20.7 9.6 44 7.2 SE 9 11 5 6 1013.7 1009.8 -
 
Date/Time
CST
Temp
°C
App
Temp
°C
Dew
Point
°C
Rel
Hum
%
Delta-T
°C
Wind Press
QNH
hPa
Press
MSL
hPa
Rain since
9am
mm
Dir  Spd
km/h
Gust
km/h
Spd
kts
Gust
kts
22/11:30pm 24.5 22.8 10.0 40 8.2 SE 9 11 5 6 1013.7 1009.8 -
22/11:00pm 23.5 22.4 10.6 44 7.3 ESE 7 7 4 4 1013.7 1009.8 -
22/10:30pm 26.0 23.9 9.8 36 9.2 SE 11 11 6 6 1013.7 1009.8 -
22/10:00pm 25.0 23.6 10.8 41 8.1 E 9 9 5 5 1013.6 1009.7 -
22/09:30pm 25.1 23.8 11.3 42 8.0 E 9 9 5 5 1013.3 1009.4 -
22/09:00pm 25.7 23.7 10.3 38 8.8 ESE 11 11 6 6 1012.9 1009.0 -
22/08:30pm 27.6 26.0 10.3 34 10.0 ESE 9 9 5 5 1012.7 1008.8 -
22/08:00pm 28.8 27.4 9.5 30 11.0 E 7 9 4 5 1012.3 1008.4 -
22/07:30pm 30.4 28.9 9.3 27 12.1 E 7 9 4 5 1011.9 1008.0 -
22/07:00pm 32.6 30.6 8.8 23 13.7 ENE 9 11 5 6 1011.5 1007.6 -
22/06:30pm 34.5 32.0 8.3 20 15.1 E 11 17 6 9 1011.2 1007.3 -
22/06:00pm 36.4 33.5 8.3 18 16.3 E 13 20 7 11 1011.1 1007.2 -
22/05:30pm 37.1 33.4 8.0 17 16.9 ENE 17 26 9 14 1010.9 1006.9 -
22/05:00pm 37.4 33.2 7.3 16 17.3 E 19 28 10 15 1010.9 1006.9 -
22/04:30pm 37.7 34.7 7.6 16 17.4 ESE 13 24 7 13 1010.9 1006.9 -
22/04:00pm 38.3 34.3 8.1 16 17.6 E 19 26 10 14 1011.0 1007.1 -
22/03:30pm 38.3 34.6 8.1 16 17.6 SE 17 26 9 14 1010.9 1006.9 -
22/03:00pm 37.6 35.5 8.4 17 17.1 E 9 24 5 13 1011.2 1007.3 -
22/02:30pm 37.6 34.8 8.4 17 17.1 ESE 13 22 7 12 1011.5 1007.6 -
22/02:00pm 37.4 34.7 9.1 18 16.7 ENE 13 28 7 15 1011.9 1008.0 -
22/01:30pm 36.9 34.5 10.2 20 16.0 NNE 13 24 7 13 1012.2 1008.3 -
22/01:00pm 36.5 34.2 10.6 21 15.6 NE 13 24 7 13 1012.7 1008.8 -
22/12:30pm 36.4 33.0 10.6 21 15.5 E 19 28 10 15 1013.3 1009.4 -
22/12:00pm 35.8 32.3 10.1 21 15.3 ENE 19 28 10 15 1013.8 1009.9 -
22/11:30am 35.7 32.5 11.4 23 14.7 ENE 19 30 10 16 1014.2 1010.4 -
22/11:00am 34.7 31.3 11.2 24 14.1 ENE 20 30 11 16 1014.7 1010.8 -
22/10:30am 33.9 29.9 10.5 24 13.9 ENE 22 30 12 16 1015.1 1011.2 -
22/10:00am 33.9 30.3 11.7 26 13.4 E 22 33 12 18 1015.1 1011.2 -
22/09:30am 32.7 28.9 11.3 27 12.8 E 22 33 12 18 1015.4 1011.5 -
22/09:00am 31.3 27.5 11.1 29 12.0 ESE 22 33 12 18 1015.2 1011.3 -
22/08:30am 29.6 26.2 11.2 32 10.8 ESE 20 26 11 14 1014.9 1011.0 -
22/08:00am 26.9 25.0 11.8 39 8.9 ESE 13 19 7 10 1014.7 1010.8 -
22/07:30am 23.0 22.4 11.7 49 6.5 SE 6 7 3 4 1014.6 1010.7 -
22/07:00am 21.2 20.3 11.5 54 5.5 SE 7 7 4 4 1014.4 1010.5 -
22/06:30am 19.9 18.9 10.3 54 5.3 SE 6 6 3 3 1014.1 1010.2 -
22/06:00am 21.1 20.5 10.3 50 6.0 SE 4 7 2 4 1014.0 1010.1 -
22/05:30am 21.2 19.7 10.4 50 6.0 SE 9 9 5 5 1013.6 1009.7 -
22/05:00am 22.4 21.0 10.9 48 6.5 SE 9 11 5 6 1013.4 1009.5 -
22/04:30am 22.5 20.8 10.0 45 7.0 SE 9 11 5 6 1013.1 1009.2 -
22/04:00am 23.9 22.1 9.5 40 8.0 SE 9 11 5 6 1013.2 1009.3 -
22/03:30am 25.5 23.1 10.1 38 8.8 SE 13 17 7 9 1013.2 1009.3 -
22/03:00am 22.7 20.5 9.5 43 7.3 SE 11 11 6 6 1012.9 1009.0 -
22/02:30am 23.6 21.6 8.5 38 8.3 SE 9 9 5 5 1013.0 1009.1 -
22/02:00am 25.7 23.3 8.7 34 9.4 SE 11 13 6 7 1013.1 1009.2 -
22/01:30am 26.4 24.0 8.8 33 9.8 ESE 11 15 6 8 1013.1 1009.2 -
22/01:00am 24.3 22.0 9.1 38 8.4 ESE 11 13 6 7 1013.2 1009.3 -
22/12:30am 24.1 22.2 8.9 38 8.4 ESE 9 11 5 6 1013.2 1009.3 -
22/12:00am 23.8 23.0 9.8 41 7.9 SE 4 6 2 3 1013.0 1009.1 -
 
Date/Time
CST
Temp
°C
App
Temp
°C
Dew
Point
°C
Rel
Hum
%
Delta-T
°C
Wind Press
QNH
hPa
Press
MSL
hPa
Rain since
9am
mm
Dir  Spd
km/h
Gust
km/h
Spd
kts
Gust
kts
21/11:30pm 24.2 22.9 9.8 40 8.1 ESE 7 9 4 5 1012.9 1009.0 -
21/11:00pm 24.6 23.2 9.7 39 8.4 ESE 7 7 4 4 1012.8 1008.9 -
21/10:30pm 26.5 25.1 9.4 34 9.7 ESE 7 11 4 6 1012.7 1008.8 -
21/10:00pm 26.5 25.1 9.4 34 9.7 ESE 7 9 4 5 1012.6 1008.7 -
21/09:30pm 27.3 25.5 9.6 33 10.1 ESE 9 9 5 5 1012.3 1008.4 -
21/09:00pm 28.1 26.4 9.9 32 10.4 E 9 9 5 5 1011.9 1008.0 -
21/08:30pm 29.1 27.9 10.3 31 10.9 ESE 7 9 4 5 1011.6 1007.7 -
21/08:00pm 30.7 28.6 9.6 27 12.2 E 11 13 6 7 1011.2 1007.3 -
21/07:30pm 31.2 29.5 10.0 27 12.4 E 9 11 5 6 1010.8 1006.8 -
21/07:00pm 33.2 32.1 9.9 24 13.7 E 6 7 3 4 1010.3 1006.4 -
21/06:30pm 34.5 33.1 9.0 21 14.9 E 6 7 3 4 1010.1 1006.2 -
21/06:00pm 35.9 33.9 7.0 17 16.4 ESE 7 13 4 7 1010.0 1006.1 -
21/05:30pm 37.7 35.0 5.6 14 18.0 ESE 9 20 5 11 1010.0 1006.1 -
21/05:00pm 38.1 35.9 6.0 14 18.1 E 7 13 4 7 1009.8 1005.9 -
21/04:30pm 37.8 34.9 4.7 13 18.3 NNE 9 20 5 11 1009.7 1005.8 -
21/04:00pm 38.0 35.7 4.8 13 18.4 NW 6 11 3 6 1009.8 1005.9 -
21/03:30pm 37.9 35.0 4.7 13 18.4 N 9 24 5 13 1009.9 1006.0 -
21/03:00pm 37.6 34.7 4.5 13 18.3 NNE 9 17 5 9 1010.2 1006.3 -
21/02:30pm 37.0 33.8 2.9 12 18.3 SE 9 17 5 9 1010.5 1006.6 -
21/02:00pm 37.2 34.6 4.2 13 18.1 N 7 15 4 8 1011.0 1007.1 -
21/01:30pm 36.8 33.4 3.9 13 17.9 ENE 11 19 6 10 1011.6 1007.7 -
21/01:00pm 36.6 33.5 3.7 13 17.8 NNE 9 19 5 10 1012.1 1008.2 -
21/12:30pm 36.3 33.6 3.5 13 17.7 NE 7 20 4 11 1012.6 1008.7 -
21/12:00pm 35.6 32.2 4.0 14 17.1 NNE 11 17 6 9 1013.1 1009.2 -
21/11:30am 34.5 30.5 3.1 14 16.7 NE 13 19 7 10 1013.4 1009.5 -
21/11:00am 34.6 31.6 4.2 15 16.4 NE 9 20 5 11 1013.8 1009.9 -
21/10:30am 33.2 30.9 4.9 17 15.3 E 6 13 3 7 1014.0 1010.1 -
21/10:00am 31.9 29.7 5.4 19 14.4 ENE 6 9 3 5 1014.0 1010.1 -
21/09:30am 30.3 28.0 4.9 20 13.6 ESE 6 11 3 6 1014.2 1010.4 -
21/09:00am 28.5 26.1 4.1 21 12.7 E 6 9 3 5 1014.2 1010.4 -
21/08:30am 26.7 24.2 3.9 23 11.7 ESE 6 11 3 6 1014.0 1010.1 -
21/08:00am 23.5 19.7 4.0 28 9.8 SSE 13 17 7 9 1013.7 1009.8 -
21/07:30am 20.2 17.8 4.3 35 7.9 SSE 6 9 3 5 1013.3 1009.4 -
21/07:00am 18.3 15.7 3.4 37 7.2 SE 6 7 3 4 1012.7 1008.8 -
21/06:30am 17.6 14.8 3.1 38 6.9 NNE 7 9 4 5 1012.3 1008.4 -
21/06:00am 17.8 14.9 2.5 36 7.2 NNE 7 9 4 5 1012.2 1008.3 -
21/05:30am 20.1 16.9 2.9 32 8.3 ENE 9 11 5 6 1011.7 1007.8 -
21/05:00am 18.5 14.7 3.9 38 7.1 E 13 15 7 8 1011.4 1007.5 -
21/04:30am 18.3 14.7 3.0 36 7.3 ESE 11 11 6 6 1011.4 1007.5 -
21/04:00am 19.4 16.7 3.6 35 7.7 SE 7 9 4 5 1011.3 1007.4 -
21/03:30am 18.7 16.1 3.3 36 7.4 SE 6 6 3 3 1011.3 1007.4 -
21/03:00am 18.7 15.9 2.9 35 7.6 E 7 7 4 4 1011.2 1007.3 -
21/02:30am 18.8 15.5 2.6 34 7.7 E 9 9 5 5 1011.3 1007.4 -
21/02:00am 19.1 15.5 2.9 34 7.8 ESE 11 11 6 6 1011.3 1007.4 -
21/01:30am 19.9 15.8 2.3 31 8.4 ESE 13 13 7 7 1011.4 1007.5 -
21/01:00am 21.2 17.1 2.5 29 9.0 ESE 13 13 7 7 1011.3 1007.4 -
21/12:30am 20.9 16.9 2.7 30 8.8 ESE 13 15 7 8 1011.3 1007.4 -
21/12:00am 21.4 17.4 3.1 30 9.0 ESE 13 15 7 8 1011.4 1007.5 -
 
Date/Time
CST
Temp
°C
App
Temp
°C
Dew
Point
°C
Rel
Hum
%
Delta-T
°C
Wind Press
QNH
hPa
Press
MSL
hPa
Rain since
9am
mm
Dir  Spd
km/h
Gust
km/h
Spd
kts
Gust
kts
20/11:30pm 22.5 18.6 3.6 29 9.4 E 13 13 7 7 1011.5 1007.6 -
20/11:00pm 23.9 20.3 3.2 26 10.3 E 11 15 6 8 1011.6 1007.7 -
20/10:30pm 24.9 22.3 3.0 24 11.0 ENE 6 9 3 5 1011.5 1007.6 -
20/10:00pm 26.0 23.2 3.3 23 11.5 E 7 9 4 5 1011.3 1007.4 -
20/09:30pm 26.3 23.1 2.9 22 11.8 E 9 13 5 7 1011.2 1007.3 -
20/09:00pm 26.6 24.4 5.5 26 11.2 ESE 6 9 3 5 1010.9 1006.9 -
20/08:30pm 25.8 24.3 6.9 30 10.2 NE 4 7 2 4 1010.5 1006.6 -
20/08:00pm 27.6 25.5 5.8 25 11.6 WSW 6 7 3 4 1010.1 1006.2 -
20/07:30pm 29.6 27.5 5.6 22 12.9 SSE 6 9 3 5 1009.8 1005.9 -
20/07:00pm 31.5 29.4 5.8 20 14.0 WNW 6 6 3 3 1009.4 1005.5 -
20/06:30pm 34.1 31.6 3.8 15 16.3 NW 6 7 3 4 1009.1 1005.1 -
20/06:00pm 37.5 35.1 2.1 11 18.8 NW 4 7 2 4 1008.9 1004.9 -

Other Formats:

Comma delimited format used in spreadsheet applications
http://www.bom.gov.au/fwo/IDD60801/IDD60801.94328.axf

JavaScript Object Notation format (JSON) in row-major order
http://www.bom.gov.au/fwo/IDD60801/IDD60801.94328.json